Time;durP1;ratioP1;P1;durP2;ratioP2;P2;SDS_P1;SDS_P2;PMS_P1;PMS_P2;Temp;Humidity;BMP_temperature;BMP_pressure;BME280_temperature;BME280_humidity;BME280_pressure;Samples;Min_cycle;Max_cycle;Signal;HPM_P1;HPM_P2
2022/12/03 00:00:33;;;;;;;6.38;2.80;;;;;;;4.14;75.86;102493.13;4938931;28;20034;-80
2022/12/03 00:02:58;;;;;;;2.97;2.30;;;;;;;4.09;75.93;102487.94;4939494;28;20031;-79
2022/12/03 00:05:24;;;;;;;4.95;2.40;;;;;;;3.93;75.62;102470.75;4954792;28;20034;-79
2022/12/03 00:07:49;;;;;;;6.80;1.92;;;;;;;3.98;76.69;102487.00;4955410;28;20031;-80
2022/12/03 00:10:15;;;;;;;7.15;4.13;;;;;;;3.99;76.10;102489.59;4939126;28;20039;-80
2022/12/03 00:12:40;;;;;;;4.50;2.80;;;;;;;3.99;76.54;102484.47;4923073;28;20031;-80
2022/12/03 00:15:07;;;;;;;4.88;3.20;;;;;;;3.91;76.22;102480.13;4923339;28;20039;-80
2022/12/03 00:17:32;;;;;;;3.38;2.58;;;;;;;4.09;76.17;102508.44;4939131;28;20074;-80
2022/12/03 00:19:58;;;;;;;4.20;2.97;;;;;;;3.97;76.31;102490.41;4938741;28;20069;-80
2022/12/03 00:22:23;;;;;;;2.95;1.67;;;;;;;3.95;76.46;102507.50;4955182;28;20101;-79
2022/12/03 00:24:49;;;;;;;4.28;3.35;;;;;;;4.00;77.01;102513.50;4955341;28;20081;-79
2022/12/03 00:27:14;;;;;;;6.47;2.50;;;;;;;3.94;76.55;102495.53;4923311;28;20096;-80
2022/12/03 00:29:40;;;;;;;3.08;2.28;;;;;;;3.95;76.93;102502.38;4923089;28;20054;-80
2022/12/03 00:32:05;;;;;;;7.70;3.72;;;;;;;3.86;76.47;102490.34;4938948;28;20031;-80
2022/12/03 00:34:31;;;;;;;5.43;3.17;;;;;;;4.05;76.62;102513.53;4938670;28;20424;-80
2022/12/03 00:36:56;;;;;;;3.17;2.33;;;;;;;4.06;75.82;102499.88;4939259;28;20404;-79
2022/12/03 00:39:22;;;;;;;1.88;1.45;;;;;;;4.02;75.33;102493.88;4923018;28;20026;-79
2022/12/03 00:41:47;;;;;;;3.75;2.55;;;;;;;4.02;75.60;102519.47;4938918;28;20045;-80
2022/12/03 00:44:13;;;;;;;4.25;2.45;;;;;;;4.05;76.30;102522.09;4922904;28;20028;-80
2022/12/03 00:46:38;;;;;;;7.60;2.05;;;;;;;4.04;76.15;102507.56;4938579;28;20039;-79
2022/12/03 00:49:04;;;;;;;3.72;2.70;;;;;;;4.09;75.98;102516.13;4922625;28;20069;-79
2022/12/03 00:51:29;;;;;;;3.05;2.03;;;;;;;4.03;75.89;102505.81;4954686;28;20088;-79
2022/12/03 00:53:54;;;;;;;1.90;1.27;;;;;;;4.10;75.98;102517.84;4922874;28;20477;-79
2022/12/03 00:56:20;;;;;;;5.22;2.15;;;;;;;4.02;76.20;102515.22;4938629;28;20041;-79
2022/12/03 00:58:45;;;;;;;3.80;2.67;;;;;;;4.11;76.63;102517.00;4938800;28;20034;-80
2022/12/03 01:01:11;;;;;;;4.38;2.53;;;;;;;4.06;76.60;102523.78;4938390;28;20038;-80
2022/12/03 01:03:36;;;;;;;5.22;2.17;;;;;;;4.15;76.28;102526.44;4954280;28;20512;-79
2022/12/03 01:06:02;;;;;;;3.80;2.50;;;;;;;4.02;75.51;102504.97;4971631;28;20481;-79
2022/12/03 01:08:28;;;;;;;5.55;3.72;;;;;;;4.07;75.92;102528.06;4922829;28;20059;-80
2022/12/03 01:10:53;;;;;;;4.70;2.58;;;;;;;4.11;75.60;102518.69;4938551;28;20413;-79
2022/12/03 01:13:19;;;;;;;7.30;3.13;;;;;;;4.02;75.86;102519.47;4957559;28;20069;-79
2022/12/03 01:15:44;;;;;;;3.13;2.53;;;;;;;4.11;76.02;102532.34;4958429;28;20098;-79
2022/12/03 01:18:09;;;;;;;3.05;2.22;;;;;;;4.07;76.17;102524.66;4957636;28;20509;-79
2022/12/03 01:20:37;;;;;;;1.75;1.38;;;;;;;4.14;76.11;102534.13;4942369;28;20133;-80
2022/12/03 01:23:03;;;;;;;9.00;4.70;;;;;;;3.97;76.57;102521.16;4942404;28;20175;-80
2022/12/03 01:25:28;;;;;;;5.28;2.40;;;;;;;3.83;76.84;102502.22;4941971;28;20485;-79
2022/12/03 01:27:54;;;;;;;5.35;2.70;;;;;;;3.95;77.46;102539.06;4941863;28;20030;-79
2022/12/03 01:30:19;;;;;;;6.72;3.40;;;;;;;3.78;77.48;102509.03;4926180;28;20085;-79
2022/12/03 01:32:45;;;;;;;6.68;3.38;;;;;;;3.93;77.71;102532.19;4957682;28;20530;-80
2022/12/03 01:35:10;;;;;;;4.25;2.78;;;;;;;4.06;77.08;102538.31;4958171;28;20158;-79
2022/12/03 01:37:36;;;;;;;5.28;3.35;;;;;;;3.98;77.26;102522.88;4926299;28;20074;-80
2022/12/03 01:40:02;;;;;;;4.35;2.20;;;;;;;3.83;77.51;102508.22;4975547;28;20511;-80
2022/12/03 01:42:32;;;;;;;7.70;3.22;;;;;;;3.88;77.45;102532.16;4957954;28;20066;-79
2022/12/03 01:44:58;;;;;;;2.97;2.45;;;;;;;3.73;78.14;102512.38;4942177;28;20030;-79
2022/12/03 01:47:29;;;;;;;6.80;2.17;;;;;;;3.89;77.74;102520.22;4941960;28;20037;-79
2022/12/03 01:50:14;;;;;;;5.80;2.50;;;;;;;3.94;77.18;102537.34;4957686;28;20034;-79
2022/12/03 01:52:39;;;;;;;4.63;4.15;;;;;;;3.80;77.62;102522.69;4926681;28;20037;-79
2022/12/03 01:55:09;;;;;;;3.63;3.17;;;;;;;3.72;78.30;102510.69;4925918;28;20030;-80
2022/12/03 01:57:41;;;;;;;6.95;3.13;;;;;;;3.87;78.17;102521.91;4926075;28;20027;-79
2022/12/03 02:00:18;;;;;;;5.05;3.22;;;;;;;3.93;78.00;102532.19;4957318;28;20559;-80
2022/12/03 02:02:44;;;;;;;2.03;1.35;;;;;;;3.76;77.91;102500.50;4942451;28;20046;-79
2022/12/03 02:05:21;;;;;;;5.63;3.97;;;;;;;3.94;77.40;102526.25;4941317;28;20022;-79
2022/12/03 02:07:47;;;;;;;6.95;2.65;;;;;;;3.99;77.20;102522.00;4957553;28;20031;-80
2022/12/03 02:10:13;;;;;;;2.90;2.55;;;;;;;3.92;77.25;102522.81;4941352;28;20027;-79
2022/12/03 02:12:48;;;;;;;2.65;1.77;;;;;;;3.93;77.27;102516.84;4941399;28;20035;-80
2022/12/03 02:15:13;;;;;;;6.05;4.70;;;;;;;3.85;77.37;102491.19;4941633;28;20027;-80
2022/12/03 02:17:39;;;;;;;5.97;2.67;;;;;;;3.95;77.63;102512.59;4940757;28;20331;-80
2022/12/03 02:20:10;;;;;;;2.67;1.98;;;;;;;3.91;78.14;102508.28;4941493;28;20035;-79
2022/12/03 02:22:56;;;;;;;4.20;1.55;;;;;;;4.05;77.70;102519.53;4941319;28;20039;-79
2022/12/03 02:25:23;;;;;;;4.45;1.88;;;;;;;3.62;78.59;102457.69;4974404;28;20034;-80
2022/12/03 02:27:49;;;;;;;6.93;3.25;;;;;;;3.92;77.92;102504.88;4957029;28;20082;-80
2022/12/03 02:30:17;;;;;;;5.47;2.95;;;;;;;3.94;77.89;102508.34;4956995;28;20039;-79
2022/12/03 02:32:42;;;;;;;3.63;2.58;;;;;;;3.73;78.56;102486.78;4941524;28;20038;-79
2022/12/03 02:35:19;;;;;;;4.20;1.77;;;;;;;3.91;77.80;102504.03;4925200;28;20030;-80
2022/12/03 02:37:45;;;;;;;2.50;1.92;;;;;;;3.95;77.64;102517.72;4941061;28;20022;-80
2022/12/03 02:40:13;;;;;;;3.08;1.52;;;;;;;3.87;77.75;102511.69;4940712;28;20023;-80
2022/12/03 02:42:39;;;;;;;3.67;2.45;;;;;;;3.95;77.17;102518.59;4925147;28;20405;-81
2022/12/03 02:45:18;;;;;;;4.10;2.55;;;;;;;3.74;77.24;102493.66;4940664;28;20030;-79
2022/12/03 02:48:04;;;;;;;6.38;3.15;;;;;;;3.92;77.03;102522.81;4958090;28;20058;-80
2022/12/03 02:50:35;;;;;;;5.07;3.97;;;;;;;3.89;77.67;102525.34;4958502;28;20043;-79
2022/12/03 02:53:01;;;;;;;4.20;2.17;;;;;;;3.83;77.31;102502.22;4925023;28;20035;-79
2022/12/03 02:55:28;;;;;;;4.78;4.25;;;;;;;3.79;76.76;102482.59;4940569;28;20023;-79
2022/12/03 02:57:53;;;;;;;2.72;1.92;;;;;;;3.86;76.64;102512.53;4940533;28;20043;-79
2022/12/03 03:00:19;;;;;;;5.90;2.33;;;;;;;3.92;76.10;102528.78;4924328;28;20378;-79
2022/12/03 03:02:45;;;;;;;4.50;2.60;;;;;;;3.83;75.90;102505.66;4956834;28;20089;-79
2022/12/03 03:05:11;;;;;;;2.10;1.27;;;;;;;3.94;75.41;102516.88;4940901;28;20058;-79
2022/12/03 03:07:36;;;;;;;5.32;3.28;;;;;;;3.87;75.09;102507.41;4940482;28;20397;-79
2022/12/03 03:10:04;;;;;;;6.07;1.58;;;;;;;4.03;75.18;102532.31;4956316;28;20507;-80
2022/12/03 03:12:30;;;;;;;5.95;2.97;;;;;;;3.99;75.58;102535.69;4924518;28;20023;-80
2022/12/03 03:14:56;;;;;;;3.45;2.67;;;;;;;3.92;75.64;102533.03;4924011;28;20155;-79
2022/12/03 03:17:22;;;;;;;3.55;2.45;;;;;;;3.84;75.78;102532.16;4936674;29;20193;-79
2022/12/03 03:19:47;;;;;;;5.35;3.38;;;;;;;3.83;76.40;102531.25;4952868;29;20039;-80
2022/12/03 03:22:13;;;;;;;7.10;3.85;;;;;;;3.81;76.98;102532.94;4952927;29;20062;-79
2022/12/03 03:24:38;;;;;;;7.57;3.30;;;;;;;3.62;76.68;102496.06;4952619;29;20023;-79
2022/12/03 03:27:04;;;;;;;3.55;3.05;;;;;;;3.74;76.60;102529.50;4968856;28;20121;-79
2022/12/03 03:29:30;;;;;;;3.20;2.45;;;;;;;3.81;76.77;102527.81;4952516;29;20042;-79
2022/12/03 03:31:56;;;;;;;5.88;2.78;;;;;;;3.79;76.80;102526.09;4952772;29;20023;-79
2022/12/03 03:34:21;;;;;;;3.58;2.03;;;;;;;3.86;76.28;102528.75;4936067;29;20085;-79
2022/12/03 03:36:47;;;;;;;3.38;2.92;;;;;;;3.85;76.83;102534.72;4936241;29;20046;-79
2022/12/03 03:39:12;;;;;;;6.95;3.28;;;;;;;3.94;76.47;102537.34;4952655;29;20027;-79
2022/12/03 03:41:38;;;;;;;3.80;3.00;;;;;;;3.84;76.40;102516.78;4952584;29;20069;-79
2022/12/03 03:44:04;;;;;;;3.55;2.72;;;;;;;3.96;76.37;102535.66;4952261;29;20066;-79
2022/12/03 03:46:32;;;;;;;11.20;3.17;;;;;;;3.68;76.54;102498.72;4952569;29;20078;-80
2022/12/03 03:48:57;;;;;;;6.60;4.32;;;;;;;3.82;76.07;102510.75;4952450;29;20035;-80
2022/12/03 03:51:23;;;;;;;7.82;4.50;;;;;;;3.89;76.63;102525.34;4952251;29;20027;-80
2022/12/03 03:53:48;;;;;;;5.28;3.63;;;;;;;3.86;77.45;102538.13;4952324;29;20038;-80
2022/12/03 03:56:16;;;;;;;7.63;4.47;;;;;;;3.67;77.52;102520.03;4951990;29;20035;-79
2022/12/03 03:58:42;;;;;;;2.20;2.00;;;;;;;3.85;76.28;102528.72;4951606;29;20035;-79
2022/12/03 04:01:08;;;;;;;5.32;3.20;;;;;;;3.76;76.51;102531.22;4951915;29;20032;-79
2022/12/03 04:03:33;;;;;;;5.65;3.90;;;;;;;3.66;77.12;102522.56;4952519;29;20062;-80
2022/12/03 04:05:59;;;;;;;3.85;2.92;;;;;;;3.62;77.07;102510.56;4952174;29;20492;-80
2022/12/03 04:08:24;;;;;;;10.50;2.97;;;;;;;3.64;77.01;102516.59;4952040;29;20375;-79
2022/12/03 04:13:34;;;;;;;2.95;2.70;;;;;;;3.70;77.25;102517.50;4951656;29;20424;-79
2022/12/03 04:16:00;;;;;;;5.68;2.75;;;;;;;3.79;76.81;102537.19;4952045;28;20028;-79
2022/12/03 04:18:43;;;;;;;4.75;3.13;;;;;;;3.66;76.63;102535.38;4935697;29;20054;-80
2022/12/03 04:23:57;;;;;;;4.68;2.50;;;;;;;3.69;75.83;102525.16;4952099;29;20042;-79
2022/12/03 04:29:06;;;;;;;3.72;2.17;;;;;;;3.62;76.46;102534.47;4951738;29;20579;-79
2022/12/03 04:37:00;;;;;;;2.80;2.45;;;;;;;3.55;77.07;102522.47;4951650;29;20528;-79
2022/12/03 04:39:25;;;;;;;2.67;1.88;;;;;;;3.61;77.05;102531.91;4935618;29;20063;-79
2022/12/03 04:41:51;;;;;;;5.70;2.78;;;;;;;3.60;76.70;102530.19;4951282;29;20058;-79
2022/12/03 04:47:03;;;;;;;2.55;1.92;;;;;;;3.63;76.30;102533.63;4951459;29;20448;-79
2022/12/03 04:49:29;;;;;;;5.82;3.47;;;;;;;3.62;76.77;102549.81;4951431;29;20034;-80
2022/12/03 04:51:55;;;;;;;1.27;1.05;;;;;;;3.73;76.00;102555.06;4967616;28;20035;-80
2022/12/03 04:54:20;;;;;;;4.28;2.75;;;;;;;3.62;76.20;102534.47;4935395;29;20413;-79
2022/12/03 04:56:46;;;;;;;7.47;3.88;;;;;;;3.63;76.56;102546.41;4951132;29;20062;-79
2022/12/03 04:59:11;;;;;;;3.33;3.03;;;;;;;3.68;75.70;102549.91;4952915;28;20478;-80
2022/12/03 05:01:37;;;;;;;3.72;2.03;;;;;;;3.62;75.23;102548.97;4935335;29;20031;-80
2022/12/03 05:04:02;;;;;;;5.38;2.83;;;;;;;3.56;76.62;102538.69;4951810;29;20031;-79
2022/12/03 05:06:28;;;;;;;3.10;1.90;;;;;;;3.57;76.12;102548.06;4951424;29;20078;-79
2022/12/03 05:08:53;;;;;;;4.85;4.40;;;;;;;3.61;76.07;102542.13;4951510;29;20062;-79
2022/12/03 05:11:19;;;;;;;3.95;2.50;;;;;;;3.61;75.53;102553.22;4951007;29;20027;-80
2022/12/03 05:13:44;;;;;;;6.72;2.58;;;;;;;3.40;75.60;102538.50;4935371;29;20042;-79
2022/12/03 05:16:10;;;;;;;2.17;1.98;;;;;;;3.47;76.44;102546.25;4951228;28;20031;-80
2022/12/03 05:18:35;;;;;;;3.60;2.65;;;;;;;3.62;76.71;102566.88;4922759;28;20081;-80
2022/12/03 05:21:01;;;;;;;2.92;2.63;;;;;;;3.65;76.71;102572.91;4938542;28;20465;-79
2022/12/03 05:23:26;;;;;;;3.97;2.10;;;;;;;3.64;76.99;102565.22;4938475;28;20102;-79
2022/12/03 05:25:52;;;;;;;5.70;3.30;;;;;;;3.70;77.00;102563.56;4938595;28;20027;-79
2022/12/03 05:28:20;;;;;;;10.50;3.20;;;;;;;3.58;76.90;102545.53;4938221;28;20039;-79
2022/12/03 05:30:46;;;;;;;3.58;2.78;;;;;;;3.60;76.65;102540.41;4939296;28;20121;-80
2022/12/03 05:33:12;;;;;;;4.53;3.00;;;;;;;3.76;76.43;102573.03;4954385;28;20106;-79
2022/12/03 05:35:37;;;;;;;6.70;3.72;;;;;;;3.81;76.11;102571.34;4938518;28;20053;-79
2022/12/03 05:38:03;;;;;;;3.92;2.50;;;;;;;3.60;76.03;102546.41;4938490;28;20507;-80
2022/12/03 05:40:28;;;;;;;3.85;2.47;;;;;;;3.52;76.32;102535.22;4938220;28;20059;-79
2022/12/03 05:42:54;;;;;;;4.07;2.17;;;;;;;3.79;76.23;102577.31;4954419;28;20034;-79
2022/12/03 05:45:20;;;;;;;1.92;1.83;;;;;;;3.86;75.70;102584.22;4938486;28;20102;-80
2022/12/03 05:47:45;;;;;;;3.33;3.00;;;;;;;3.69;76.46;102572.09;4971467;28;20027;-80
2022/12/03 05:50:11;;;;;;;7.32;3.45;;;;;;;3.67;77.07;102571.22;4937995;28;20101;-80
2022/12/03 05:52:36;;;;;;;4.15;3.33;;;;;;;3.63;77.20;102558.34;4971622;28;20034;-80
2022/12/03 05:55:02;;;;;;;5.72;3.55;;;;;;;3.71;77.00;102565.28;4953536;28;20035;-80
2022/12/03 05:57:27;;;;;;;5.25;3.40;;;;;;;3.72;77.42;102572.13;4954089;28;20035;-80
2022/12/03 05:59:53;;;;;;;4.30;3.03;;;;;;;3.54;77.28;102559.16;4941299;28;20038;-80
2022/12/03 06:02:19;;;;;;;2.15;1.77;;;;;;;3.76;76.67;102584.97;4941566;28;20039;-80
2022/12/03 06:04:44;;;;;;;6.85;4.22;;;;;;;3.67;76.57;102566.09;4941390;28;20473;-79
2022/12/03 06:07:10;;;;;;;4.78;4.05;;;;;;;3.82;76.57;102591.00;4957604;28;20039;-81
2022/12/03 06:09:35;;;;;;;4.80;2.53;;;;;;;3.73;76.77;102583.22;4941273;28;20031;-79
2022/12/03 06:12:01;;;;;;;3.30;2.25;;;;;;;3.89;75.17;102591.91;4957328;28;20034;-79
2022/12/03 06:14:28;;;;;;;5.13;2.63;;;;;;;3.78;75.69;102584.13;4941113;28;20038;-79
2022/12/03 06:16:54;;;;;;;4.40;3.10;;;;;;;3.73;75.86;102583.22;4925711;28;20051;-80
2022/12/03 06:19:19;;;;;;;3.13;1.83;;;;;;;3.72;75.34;102569.56;4974514;28;20027;-80
2022/12/03 06:21:45;;;;;;;6.13;3.90;;;;;;;3.78;75.21;102586.69;4941285;28;20035;-79
2022/12/03 06:24:11;;;;;;;3.90;2.13;;;;;;;3.79;75.52;102597.78;4941237;28;20042;-80
2022/12/03 06:26:36;;;;;;;2.55;2.35;;;;;;;3.56;75.45;102547.22;4957467;28;20118;-79
2022/12/03 06:29:02;;;;;;;1.88;1.77;;;;;;;3.82;75.51;102608.91;4941078;28;20027;-79
2022/12/03 06:31:27;;;;;;;2.55;2.35;;;;;;;3.72;75.33;102602.84;4940719;28;20035;-80
2022/12/03 06:33:53;;;;;;;3.60;2.65;;;;;;;3.70;76.16;102591.72;4925143;28;20034;-79
2022/12/03 06:36:19;;;;;;;3.40;2.28;;;;;;;3.77;75.76;102600.34;4941056;28;20405;-80
2022/12/03 06:38:45;;;;;;;6.50;3.85;;;;;;;3.88;75.48;102610.69;4956838;28;20052;-80
2022/12/03 06:41:10;;;;;;;6.70;2.45;;;;;;;3.85;74.92;102603.00;4956835;28;20038;-79
2022/12/03 06:43:36;;;;;;;4.10;1.95;;;;;;;3.77;74.99;102605.47;4925066;28;20493;-79
2022/12/03 06:46:01;;;;;;;2.45;1.30;;;;;;;3.68;75.65;102598.53;4940884;28;20517;-79
2022/12/03 06:48:27;;;;;;;7.88;2.30;;;;;;;3.68;76.26;102601.09;4956771;28;20481;-79
2022/12/03 06:50:53;;;;;;;5.40;2.65;;;;;;;3.53;75.75;102579.56;4940700;28;20022;-80
2022/12/03 06:53:18;;;;;;;3.78;2.03;;;;;;;3.59;76.43;102588.19;4956074;28;20485;-79
2022/12/03 06:55:43;;;;;;;4.40;2.30;;;;;;;3.54;77.15;102587.28;4956404;28;20027;-80
2022/12/03 06:58:09;;;;;;;3.70;2.03;;;;;;;3.57;76.78;102587.31;4940599;28;20035;-79
2022/12/03 07:00:34;;;;;;;3.65;2.85;;;;;;;3.67;76.89;102594.25;4956323;28;20424;-79
2022/12/03 07:03:00;;;;;;;5.10;2.67;;;;;;;3.72;76.70;102596.84;4956614;28;20031;-79
2022/12/03 07:05:25;;;;;;;3.22;2.92;;;;;;;3.67;76.46;102589.13;4940634;28;20038;-79
2022/12/03 07:07:54;;;;;;;4.00;3.25;;;;;;;3.79;75.78;102603.75;4956358;28;20515;-79
2022/12/03 07:10:19;;;;;;;6.32;3.38;;;;;;;3.77;76.20;102609.72;4941362;28;20030;-80
2022/12/03 07:12:45;;;;;;;3.97;3.03;;;;;;;3.61;76.26;102591.63;4973338;28;20041;-80
2022/12/03 07:15:10;;;;;;;4.65;3.83;;;;;;;3.74;76.36;102610.56;4924535;28;20031;-79
2022/12/03 07:17:36;;;;;;;5.88;3.63;;;;;;;3.60;76.13;102595.03;4940078;28;20436;-80
2022/12/03 07:20:03;;;;;;;5.65;5.15;;;;;;;3.76;76.25;102628.50;4973304;28;20041;-80
2022/12/03 07:22:29;;;;;;;4.18;2.47;;;;;;;3.78;75.77;102616.56;4955957;28;20026;-79
2022/12/03 07:24:54;;;;;;;5.22;2.85;;;;;;;3.80;76.51;102630.22;4939875;28;20105;-80
2022/12/03 07:27:20;;;;;;;3.00;2.10;;;;;;;3.84;76.95;102627.72;4924159;28;20412;-79
2022/12/03 07:29:45;;;;;;;4.90;3.60;;;;;;;3.88;76.12;102633.72;4940061;28;20044;-79
2022/12/03 07:32:11;;;;;;;6.07;3.55;;;;;;;3.94;76.38;102631.25;4939745;28;20085;-79
2022/12/03 07:34:36;;;;;;;3.72;2.90;;;;;;;3.81;75.88;102619.13;4939489;28;20038;-83
2022/12/03 07:37:02;;;;;;;7.72;3.42;;;;;;;3.61;76.49;102609.53;4955378;28;20108;-79
2022/12/03 07:39:27;;;;;;;2.63;2.30;;;;;;;3.76;76.92;102621.66;4939853;28;20031;-79
2022/12/03 07:41:53;;;;;;;4.43;2.70;;;;;;;3.82;75.85;102602.94;4939685;28;20038;-80
2022/12/03 07:44:18;;;;;;;10.55;3.95;;;;;;;3.89;75.37;102627.75;4939834;28;20026;-80
2022/12/03 07:46:44;;;;;;;4.63;2.65;;;;;;;3.81;76.04;102624.25;4955696;28;20035;-80
2022/12/03 07:49:11;;;;;;;3.85;3.10;;;;;;;3.85;76.03;102637.13;4923421;28;20452;-79
2022/12/03 07:51:36;;;;;;;11.32;6.10;;;;;;;3.83;75.74;102631.09;4924024;28;20039;-79
2022/12/03 07:54:02;;;;;;;10.18;6.00;;;;;;;3.91;76.15;102649.97;4939664;28;20037;-79
2022/12/03 07:56:28;;;;;;;22.67;8.32;;;;;;;3.80;76.49;102628.53;4939224;28;20097;-79
2022/12/03 07:58:53;;;;;;;6.70;4.18;;;;;;;3.83;76.64;102614.88;4923605;28;20027;-80
2022/12/03 08:01:18;;;;;;;19.63;4.68;;;;;;;3.89;76.02;102623.50;4955382;28;20034;-79
2022/12/03 08:03:44;;;;;;;5.40;2.03;;;;;;;3.93;75.88;102620.16;4939067;28;20389;-79
2022/12/03 08:06:10;;;;;;;3.30;1.13;;;;;;;3.93;74.92;102630.41;4939648;28;20122;-79
2022/12/03 08:08:35;;;;;;;15.65;6.20;;;;;;;3.95;74.88;102641.50;4954972;28;20031;-79
2022/12/03 08:11:01;;;;;;;4.47;4.03;;;;;;;3.93;75.73;102634.63;4955118;28;20031;-80
2022/12/03 08:13:26;;;;;;;5.35;3.97;;;;;;;3.74;75.36;102596.06;4939504;28;20400;-79
2022/12/03 08:15:52;;;;;;;6.97;3.40;;;;;;;3.83;75.59;102614.88;4955210;28;20545;-79
2022/12/03 08:18:20;;;;;;;7.22;3.88;;;;;;;3.88;76.16;102628.63;4919502;29;20142;-79
2022/12/03 08:20:48;;;;;;;6.30;4.03;;;;;;;3.82;76.03;102624.28;4951306;28;20045;-80
2022/12/03 08:23:21;;;;;;;7.43;3.15;;;;;;;3.83;76.31;102620.00;4935781;29;20118;-80
2022/12/03 08:25:47;;;;;;;3.92;3.05;;;;;;;3.80;76.51;102630.22;4935796;29;20078;-80
2022/12/03 08:28:20;;;;;;;6.43;5.00;;;;;;;3.83;75.88;102633.66;4951680;29;20453;-79
2022/12/03 08:31:11;;;;;;;6.25;5.25;;;;;;;3.95;75.85;102638.09;4951746;29;20031;-79
2022/12/03 08:33:36;;;;;;;4.60;3.22;;;;;;;3.96;75.87;102638.09;4951350;29;20126;-79
2022/12/03 08:36:11;;;;;;;5.65;3.28;;;;;;;4.06;75.41;102643.31;4951572;29;20564;-80
2022/12/03 08:38:37;;;;;;;11.52;3.15;;;;;;;3.98;75.23;102630.44;4935521;29;20555;-80
2022/12/03 08:41:13;;;;;;;7.80;2.08;;;;;;;3.94;75.42;102619.31;4951328;29;20023;-79
2022/12/03 08:43:41;;;;;;;8.93;3.00;;;;;;;3.91;75.07;102618.41;4951532;29;20027;-79
2022/12/03 08:46:17;;;;;;;4.05;2.70;;;;;;;4.05;75.89;102657.81;4935938;29;20069;-79
2022/12/03 08:48:43;;;;;;;7.57;1.83;;;;;;;4.03;75.61;102649.25;4935175;29;20039;-80
2022/12/03 08:51:22;;;;;;;1.58;1.48;;;;;;;4.07;75.03;102651.00;4951545;29;20035;-80
2022/12/03 08:53:52;;;;;;;3.78;2.13;;;;;;;4.01;75.68;102649.22;4967130;28;20031;-79
2022/12/03 08:56:21;;;;;;;5.25;3.25;;;;;;;4.02;76.06;102660.34;4935011;29;20035;-79
2022/12/03 08:58:48;;;;;;;8.18;2.30;;;;;;;4.07;75.92;102652.72;4952646;28;20034;-80
2022/12/03 09:01:43;;;;;;;5.85;3.28;;;;;;;4.11;75.39;102647.63;4951121;29;20035;-80
2022/12/03 09:04:21;;;;;;;9.25;4.13;;;;;;;4.11;75.31;102672.38;4948109;28;20043;-79
2022/12/03 09:06:47;;;;;;;5.43;2.08;;;;;;;4.13;75.83;102674.13;4967505;28;20142;-79
2022/12/03 09:09:12;;;;;;;3.72;3.13;;;;;;;3.79;74.91;102613.16;4951370;29;20536;-79
2022/12/03 09:11:38;;;;;;;2.78;2.53;;;;;;;3.97;74.54;102662.00;4967207;28;20070;-79
2022/12/03 09:14:03;;;;;;;2.70;2.13;;;;;;;4.06;75.18;102671.50;4951204;29;20027;-80
2022/12/03 09:16:29;;;;;;;4.20;2.70;;;;;;;3.94;76.23;102664.53;4937353;28;20038;-79
2022/12/03 09:18:54;;;;;;;2.70;1.80;;;;;;;3.87;75.41;102645.69;4938252;28;20393;-80
2022/12/03 09:21:20;;;;;;;5.25;2.92;;;;;;;3.90;75.61;102653.38;4971389;28;20088;-79
2022/12/03 09:23:45;;;;;;;5.93;4.20;;;;;;;3.87;76.04;102649.94;4938539;28;20030;-79
2022/12/03 09:26:11;;;;;;;4.00;2.38;;;;;;;3.88;75.70;102649.09;4938141;28;20031;-80
2022/12/03 09:28:36;;;;;;;4.13;3.13;;;;;;;3.98;75.47;102658.59;4954354;28;20134;-79
2022/12/03 09:31:02;;;;;;;6.05;3.65;;;;;;;3.97;76.50;102654.31;4953988;28;20038;-79
2022/12/03 09:33:28;;;;;;;8.48;3.40;;;;;;;3.99;76.46;102653.50;4924269;28;20121;-79
2022/12/03 09:35:53;;;;;;;6.65;3.95;;;;;;;4.07;76.15;102656.13;4942117;28;20030;-79
2022/12/03 09:38:19;;;;;;;3.55;2.78;;;;;;;4.08;75.98;102642.47;4957986;28;20042;-79
2022/12/03 09:40:44;;;;;;;3.10;2.42;;;;;;;4.03;75.22;102621.06;4958088;28;20030;-79
2022/12/03 09:43:10;;;;;;;7.63;3.55;;;;;;;4.22;75.29;102660.53;4926007;28;20067;-79
2022/12/03 09:45:36;;;;;;;4.90;2.35;;;;;;;4.18;74.97;102654.53;4941997;28;20034;-79
2022/12/03 09:48:02;;;;;;;2.85;2.47;;;;;;;4.06;75.08;102627.94;4926075;28;20075;-79
2022/12/03 09:50:28;;;;;;;7.95;3.65;;;;;;;4.17;75.22;102645.13;4957928;28;20030;-79
2022/12/03 09:52:54;;;;;;;3.10;2.03;;;;;;;4.09;75.71;102639.06;4941894;28;20170;-79
2022/12/03 09:55:24;;;;;;;2.88;2.28;;;;;;;4.14;75.45;102642.56;4941803;28;20031;-79
2022/12/03 09:57:53;;;;;;;4.05;3.15;;;;;;;4.20;75.98;102657.97;4941566;28;20038;-80
2022/12/03 10:00:20;;;;;;;9.57;3.08;;;;;;;4.04;75.81;102633.06;4925298;28;20413;-79
2022/12/03 10:02:46;;;;;;;3.38;2.42;;;;;;;4.27;75.78;102654.63;4941857;28;20027;-80
2022/12/03 10:05:12;;;;;;;5.47;3.58;;;;;;;4.30;75.32;102656.34;4941487;28;20070;-79
2022/12/03 10:07:38;;;;;;;5.80;3.85;;;;;;;4.21;75.48;102654.56;4941666;28;20035;-79
2022/12/03 10:10:04;;;;;;;4.55;2.90;;;;;;;4.24;75.24;102648.63;4925494;28;20430;-79
2022/12/03 10:12:29;;;;;;;4.15;2.97;;;;;;;4.25;75.60;102643.50;4925449;28;20497;-79
2022/12/03 10:14:55;;;;;;;5.07;3.47;;;;;;;4.28;76.26;102635.00;4940803;28;20037;-79
2022/12/03 10:17:20;;;;;;;3.33;2.80;;;;;;;4.32;75.56;102642.69;4957057;28;20054;-80
2022/12/03 10:19:46;;;;;;;6.78;4.30;;;;;;;4.18;75.61;102636.59;4941015;28;20027;-79
2022/12/03 10:22:11;;;;;;;4.38;2.75;;;;;;;4.15;75.85;102631.47;4925294;28;20113;-79
2022/12/03 10:24:37;;;;;;;5.68;2.75;;;;;;;4.09;75.72;102633.94;4925053;28;20509;-79
2022/12/03 10:27:07;;;;;;;9.07;5.00;;;;;;;4.09;76.47;102636.50;4941217;28;20038;-80
2022/12/03 10:29:34;;;;;;;15.88;7.25;;;;;;;4.18;76.29;102634.03;4941350;28;20039;-79
2022/12/03 10:32:02;;;;;;;16.17;9.45;;;;;;;4.13;75.53;102638.28;4941430;28;20039;-79
2022/12/03 10:34:30;;;;;;;17.00;8.57;;;;;;;4.02;75.93;102624.47;4956844;28;20034;-79
2022/12/03 10:37:20;;;;;;;22.27;5.68;;;;;;;4.05;76.58;102642.47;4957207;28;20035;-79
2022/12/03 10:39:52;;;;;;;4.90;2.88;;;;;;;4.14;76.34;102641.69;4940800;28;20122;-80
2022/12/03 10:42:18;;;;;;;5.10;2.78;;;;;;;4.01;76.20;102638.13;4956671;28;20493;-80
2022/12/03 10:44:43;;;;;;;8.88;4.88;;;;;;;4.02;76.19;102634.72;4939813;28;20046;-79
2022/12/03 10:47:10;;;;;;;8.45;5.20;;;;;;;4.13;75.95;102637.38;4957178;28;20408;-80
2022/12/03 10:49:35;;;;;;;11.60;4.60;;;;;;;4.09;76.85;102631.38;4941072;28;20038;-79
2022/12/03 10:52:01;;;;;;;9.63;3.88;;;;;;;4.06;77.59;102631.38;4940647;28;20034;-79
2022/12/03 10:54:27;;;;;;;19.92;7.20;;;;;;;4.05;77.36;102605.75;4940317;28;20390;-79
2022/12/03 10:56:52;;;;;;;29.83;11.57;;;;;;;4.23;76.45;102621.28;4940392;28;20027;-80
2022/12/03 10:59:25;;;;;;;20.10;9.52;;;;;;;4.15;77.36;102613.53;4956597;28;20031;-79
2022/12/03 11:01:50;;;;;;;;;;;;;;;4.18;76.93;102616.09;4941041;28;20066;-80
2022/12/03 11:04:21;;;;;;;23.00;9.18;;;;;;;4.01;77.63;102600.56;4956392;28;19996;-79
2022/12/03 11:06:47;;;;;;;16.40;9.55;;;;;;;3.93;76.62;102561.25;4940669;28;20050;-79
2022/12/03 11:09:17;;;;;;;15.68;7.20;;;;;;;4.08;77.62;102591.25;4940122;28;20133;-79
2022/12/03 11:11:43;;;;;;;10.40;5.25;;;;;;;4.07;77.63;102596.38;4940704;28;20173;-81
2022/12/03 11:14:08;;;;;;;11.95;5.70;;;;;;;4.09;77.66;102581.88;4923974;28;20488;-80
2022/12/03 11:16:40;;;;;;;5.35;4.15;;;;;;;4.22;77.30;102605.03;4940366;28;20050;-80
2022/12/03 11:19:11;;;;;;;12.88;4.68;;;;;;;4.20;77.63;102599.03;4973451;28;20082;-80
2022/12/03 11:22:05;;;;;;;6.20;3.05;;;;;;;4.19;77.71;102602.44;4973492;28;20031;-79
2022/12/03 11:24:31;;;;;;;7.00;3.42;;;;;;;4.16;77.49;102584.50;4972963;28;20432;-79
2022/12/03 11:26:57;;;;;;;9.57;4.20;;;;;;;4.25;77.95;102594.84;4923765;28;20575;-79
2022/12/03 11:29:51;;;;;;;15.98;7.13;;;;;;;4.29;77.28;102600.81;4972974;28;20023;-79
2022/12/03 11:32:41;;;;;;;12.27;7.03;;;;;;;4.30;77.05;102605.97;4938122;28;20038;-79
2022/12/03 11:35:22;;;;;;;7.10;4.30;;;;;;;4.13;78.35;102594.72;4973147;28;20030;-80
2022/12/03 11:37:48;;;;;;;4.97;3.85;;;;;;;4.07;77.90;102593.81;4957688;28;20054;-79
2022/12/03 11:40:16;;;;;;;3.80;2.83;;;;;;;4.08;77.97;102591.25;4923756;28;20386;-80
2022/12/03 11:42:42;;;;;;;6.03;4.05;;;;;;;3.82;78.02;102537.22;4972754;28;20548;-79
2022/12/03 11:45:07;;;;;;;6.40;3.55;;;;;;;4.26;78.08;102600.81;4955820;28;20114;-79
2022/12/03 11:47:37;;;;;;;6.63;4.25;;;;;;;4.28;78.09;102605.09;4972883;28;20413;-80